Canadian Empress — VX6095 — position and weather

sailwx.info

Track history (hours):
 
Tides and Currents Weather Stations Pressure Air Temp Water Temp Dewpoint Dewpoint Depression Visibility Wind Speed Wind Dir Waves Ship Positions

Canadian Empress

Last reported at 2015-Jul-28 14:20 UTC. Time now 2015-Jul-30 08:12 UTC.
Position N 45°18' W 073°56'.

Length 30 m.

Type: Passenger vessel. MMSI: 314954012.

Date/timePositionNaut miles runAvg speedWind from/ knotsBaromVisibWave heightAir tempDewpointWater temp
2015-Jul-28 14:20N 45°18' W 073°56'1 1.6
2015-Jul-28 13:31N 45°19' W 073°55'7 7.5
2015-Jul-28 12:33N 45°24' W 073°47'9 6.2
2015-Jul-28 11:10N 45°24' W 073°35'1 0.2
2015-Jul-28 04:27N 45°24' W 073°33'61 3.6
2015-Jul-27 11:20N 46°15' W 072°44'7 8.6
2015-Jul-27 10:33N 46°18' W 072°36'4 0.3
2015-Jul-26 20:24N 46°20' W 072°32'4 5.0
2015-Jul-26 19:33N 46°23' W 072°27'8 7.9
2015-Jul-26 18:33N 46°26' W 072°17'8 7.7
2015-Jul-26 17:33N 46°32' W 072°10'5 0.2
2015-Jul-25 12:06N 46°29' W 072°14'611.3
2015-Jul-25 11:33N 46°25' W 072°22'9 8.7
2015-Jul-25 10:33N 46°20' W 072°32'0 0.0
2015-Jul-25 00:28N 46°20' W 072°32'0 0.0
2015-Jul-24 18:21N 46°20' W 072°32'3 3.7
2015-Jul-24 17:33N 46°22' W 072°29'1010.3
2015-Jul-24 16:33N 46°16' W 072°41'65 2.6
2015-Jul-23 15:19N 45°24' W 073°38'3 4.0
2015-Jul-23 14:33N 45°25' W 073°42'10 9.8
2015-Jul-23 13:33N 45°20' W 073°54'3 3.1
2015-Jul-23 12:31N 45°17' W 073°56'  
Track history (hours):
 
Tides and Currents Weather Stations Pressure Air Temp Water Temp Dewpoint Dewpoint Depression Visibility Wind Speed Wind Dir Waves Ship Positions

Canadian Empress

Last reported at 2015-Jul-28 14:20 UTC. Time now 2015-Jul-30 08:12 UTC.
Position N 45°18' W 073°56'.

Length 30 m.

Type: Passenger vessel. MMSI: 314954012.

Date/timePositionNaut miles runAvg speedWind from/ knotsBaromVisibWave heightAir tempDewpointWater temp
2015-Jul-28 14:20N 45°18' W 073°56'1 1.6
2015-Jul-28 13:31N 45°19' W 073°55'7 7.5
2015-Jul-28 12:33N 45°24' W 073°47'9 6.2
2015-Jul-28 11:10N 45°24' W 073°35'1 0.2
2015-Jul-28 04:27N 45°24' W 073°33'61 3.6
2015-Jul-27 11:20N 46°15' W 072°44'7 8.6
2015-Jul-27 10:33N 46°18' W 072°36'4 0.3
2015-Jul-26 20:24N 46°20' W 072°32'4 5.0
2015-Jul-26 19:33N 46°23' W 072°27'8 7.9
2015-Jul-26 18:33N 46°26' W 072°17'8 7.7
2015-Jul-26 17:33N 46°32' W 072°10'5 0.2
2015-Jul-25 12:06N 46°29' W 072°14'611.3
2015-Jul-25 11:33N 46°25' W 072°22'9 8.7
2015-Jul-25 10:33N 46°20' W 072°32'0 0.0
2015-Jul-25 00:28N 46°20' W 072°32'0 0.0
2015-Jul-24 18:21N 46°20' W 072°32'3 3.7
2015-Jul-24 17:33N 46°22' W 072°29'1010.3
2015-Jul-24 16:33N 46°16' W 072°41'65 2.6
2015-Jul-23 15:19N 45°24' W 073°38'3 4.0
2015-Jul-23 14:33N 45°25' W 073°42'10 9.8
2015-Jul-23 13:33N 45°20' W 073°54'3 3.1
2015-Jul-23 12:31N 45°17' W 073°56'  

Dump ship's entire track history